Time;durP1;ratioP1;P1;durP2;ratioP2;P2;SDS_P1;SDS_P2;PMS_P1;PMS_P2;Temp;Humidity;BMP_temperature;BMP_pressure;BME280_temperature;BME280_humidity;BME280_pressure;Samples;Min_cycle;Max_cycle;Signal;HPM_P1;HPM_P2
2022/06/28 00:02:04;;;;;;;35.13;23.80;;;14.30;99.90;;;;;;5082601;28;20128;-67
2022/06/28 00:04:29;;;;;;;32.90;26.40;;;14.20;99.90;;;;;;5089723;28;20111;-67
2022/06/28 00:06:55;;;;;;;32.42;26.27;;;14.20;99.90;;;;;;5089742;28;21018;-67
2022/06/28 00:09:21;;;;;;;29.63;25.10;;;14.20;99.90;;;;;;5090227;28;20048;-67
2022/06/28 00:11:47;;;;;;;28.13;24.80;;;14.20;99.90;;;;;;5090507;28;20401;-67
2022/06/28 00:16:58;;;;;;;28.48;25.25;;;14.10;99.90;;;;;;5087226;28;20412;-67
2022/06/28 00:19:24;;;;;;;28.95;23.45;;;14.00;99.90;;;;;;5089387;28;20089;-67
2022/06/28 00:21:49;;;;;;;29.38;25.35;;;14.00;99.90;;;;;;5089363;28;20040;-67
2022/06/28 00:24:15;;;;;;;26.33;23.05;;;14.00;99.90;;;;;;5088654;28;20055;-67
2022/06/28 00:26:42;;;;;;;27.25;22.83;;;13.90;99.90;;;;;;5090081;28;20047;-67
2022/06/28 00:29:08;;;;;;;29.52;23.70;;;13.90;99.90;;;;;;5089853;28;20082;-67
2022/06/28 00:31:34;;;;;;;35.05;25.63;;;13.90;99.90;;;;;;5088988;28;20048;-67
2022/06/28 00:34:00;;;;;;;35.42;24.10;;;13.80;99.90;;;;;;5090403;28;20128;-67
2022/06/28 00:36:25;;;;;;;32.75;27.10;;;13.80;99.90;;;;;;5090525;28;20159;-68
2022/06/28 00:38:52;;;;;;;26.80;23.92;;;13.80;99.90;;;;;;5089309;28;20036;-67
2022/06/28 00:41:19;;;;;;;27.17;22.15;;;13.70;99.90;;;;;;5089154;28;20539;-67
2022/06/28 00:43:45;;;;;;;28.17;23.83;;;13.70;99.90;;;;;;5089186;28;20036;-67
2022/06/28 00:46:11;;;;;;;33.58;24.02;;;13.70;99.90;;;;;;5078663;28;20048;-67
2022/06/28 00:48:37;;;;;;;30.35;24.92;;;13.70;99.90;;;;;;5088739;28;20040;-67
2022/06/28 00:51:03;;;;;;;27.08;24.17;;;13.60;99.90;;;;;;5089088;28;20048;-67
2022/06/28 00:53:29;;;;;;;32.92;24.73;;;13.60;99.90;;;;;;5079723;28;20591;-67
2022/06/28 00:55:54;;;;;;;34.53;24.83;;;13.50;99.90;;;;;;5088360;28;20032;-67
2022/06/28 00:58:20;;;;;;;34.83;27.17;;;13.60;99.90;;;;;;5089464;28;20408;-67
2022/06/28 01:00:49;;;;;;;34.72;25.27;;;13.60;99.90;;;;;;5088950;28;20435;-67
2022/06/28 01:03:18;;;;;;;37.85;26.20;;;13.60;99.90;;;;;;5089141;28;20047;-67
2022/06/28 01:05:44;;;;;;;38.33;26.58;;;13.50;99.90;;;;;;5088096;28;20039;-67
2022/06/28 01:08:10;;;;;;;31.70;26.60;;;13.50;99.90;;;;;;5088085;28;20059;-67
2022/06/28 01:10:37;;;;;;;38.60;26.38;;;13.50;99.90;;;;;;5080898;28;20059;-67
2022/06/28 01:13:03;;;;;;;29.30;25.42;;;13.50;99.90;;;;;;5076100;28;20040;-67
2022/06/28 01:15:30;;;;;;;33.28;25.90;;;13.50;99.90;;;;;;5080198;28;20106;-67
2022/06/28 01:17:58;;;;;;;33.88;27.65;;;13.40;99.90;;;;;;5083004;28;20376;-67
2022/06/28 01:20:26;;;;;;;33.13;26.10;;;13.40;99.90;;;;;;5088443;28;20032;-67
2022/06/28 01:22:53;;;;;;;31.73;26.70;;;13.30;99.90;;;;;;5089215;28;20051;-67
2022/06/28 01:25:20;;;;;;;34.45;28.88;;;13.30;99.90;;;;;;5088959;28;20067;-67
2022/06/28 01:27:47;;;;;;;31.33;26.90;;;13.40;99.90;;;;;;5088546;28;20063;-67
2022/06/28 01:30:12;;;;;;;30.92;26.38;;;13.40;99.90;;;;;;5084346;28;20105;-67
2022/06/28 01:32:38;;;;;;;28.67;24.17;;;13.30;99.90;;;;;;5078105;28;20044;-67
2022/06/28 01:35:04;;;;;;;29.10;25.33;;;13.30;99.90;;;;;;5055874;28;20076;-67
2022/06/28 01:37:31;;;;;;;27.73;23.90;;;13.20;99.90;;;;;;5087377;28;20047;-68
2022/06/28 01:39:57;;;;;;;30.00;23.13;;;13.20;99.90;;;;;;5087979;28;20046;-67
2022/06/28 01:42:22;;;;;;;29.90;24.38;;;13.20;99.90;;;;;;5088220;28;20044;-67
2022/06/28 01:44:50;;;;;;;33.33;26.63;;;13.20;99.90;;;;;;5088889;28;20040;-67
2022/06/28 01:47:17;;;;;;;29.27;25.02;;;13.10;99.90;;;;;;5088414;28;20517;-67
2022/06/28 01:49:43;;;;;;;32.33;25.10;;;13.10;99.90;;;;;;5087567;28;20039;-67
2022/06/28 01:52:09;;;;;;;28.50;23.63;;;13.10;99.90;;;;;;5087746;28;20116;-67
2022/06/28 01:54:34;;;;;;;34.30;25.85;;;13.00;99.90;;;;;;5087810;28;20244;-67
2022/06/28 01:57:02;;;;;;;30.13;24.88;;;13.00;99.90;;;;;;5088094;28;20043;-67
2022/06/28 01:59:28;;;;;;;33.00;26.90;;;13.00;99.90;;;;;;5087710;28;20036;-67
2022/06/28 02:01:54;;;;;;;29.40;24.90;;;12.90;99.90;;;;;;5069984;28;20131;-67
2022/06/28 02:04:24;;;;;;;32.22;25.17;;;12.90;99.90;;;;;;5088013;28;20155;-67
2022/06/28 02:06:50;;;;;;;25.60;22.63;;;12.90;99.90;;;;;;5087717;28;20560;-67
2022/06/28 02:09:16;;;;;;;30.60;25.95;;;12.90;99.90;;;;;;5082474;28;20056;-67
2022/06/28 02:11:42;;;;;;;26.55;23.52;;;12.80;99.90;;;;;;5087113;28;20177;-67
2022/06/28 02:14:08;;;;;;;38.40;25.88;;;12.80;99.90;;;;;;5086040;28;20051;-67
2022/06/28 02:16:34;;;;;;;33.30;27.05;;;12.80;99.90;;;;;;5088277;28;20124;-67
2022/06/28 02:19:00;;;;;;;31.98;25.52;;;12.70;99.90;;;;;;5087971;28;20831;-67
2022/06/28 02:21:26;;;;;;;30.77;26.25;;;12.70;99.90;;;;;;5088644;28;20246;-67
2022/06/28 02:23:51;;;;;;;30.77;25.48;;;12.70;99.90;;;;;;5086481;28;20076;-67
2022/06/28 02:26:17;;;;;;;27.80;24.15;;;12.70;99.90;;;;;;5087625;28;20067;-67
2022/06/28 02:28:43;;;;;;;30.35;24.27;;;12.60;99.90;;;;;;5086988;28;20039;-67
2022/06/28 02:31:13;;;;;;;28.95;24.08;;;12.60;99.90;;;;;;5084759;28;20044;-67
2022/06/28 02:33:40;;;;;;;29.85;25.23;;;12.60;99.90;;;;;;5081842;28;20082;-67
2022/06/28 02:41:36;;;;;;;36.28;24.17;;;12.50;99.90;;;;;;5087258;28;20076;-68
2022/06/28 02:44:03;;;;;;;27.02;24.17;;;12.50;99.90;;;;;;5081613;28;20123;-68
2022/06/28 02:46:29;;;;;;;33.38;26.25;;;12.50;99.90;;;;;;5065460;28;20044;-68
2022/06/28 02:48:54;;;;;;;30.25;24.00;;;12.50;99.90;;;;;;5079443;28;20042;-68
2022/06/28 02:51:20;;;;;;;31.83;27.15;;;12.50;99.90;;;;;;5087304;28;20047;-68
2022/06/28 02:53:47;;;;;;;31.83;24.83;;;12.40;99.90;;;;;;5087036;28;20044;-68
2022/06/28 02:56:13;;;;;;;31.02;24.50;;;12.40;99.90;;;;;;5085567;28;20040;-68
2022/06/28 02:58:39;;;;;;;34.58;27.30;;;12.40;99.90;;;;;;5087249;28;20111;-68
2022/06/28 03:01:04;;;;;;;35.13;26.55;;;12.40;99.90;;;;;;5087403;28;20055;-68
2022/06/28 03:03:30;;;;;;;43.85;26.65;;;12.30;99.90;;;;;;5087370;28;20119;-68
2022/06/28 03:05:56;;;;;;;30.20;26.25;;;12.30;99.90;;;;;;5086045;28;20866;-68
2022/06/28 03:08:22;;;;;;;35.55;26.20;;;12.30;99.90;;;;;;5086553;28;20055;-69
2022/06/28 03:10:47;;;;;;;35.30;27.73;;;12.30;99.90;;;;;;5073307;28;20048;-68
2022/06/28 03:13:13;;;;;;;29.35;23.35;;;12.30;99.90;;;;;;5087406;28;20054;-68
2022/06/28 03:15:39;;;;;;;34.10;26.00;;;12.30;99.90;;;;;;5086549;28;20047;-68
2022/06/28 03:18:04;;;;;;;37.90;29.38;;;12.20;99.90;;;;;;5084727;28;20067;-67
2022/06/28 03:20:30;;;;;;;36.13;28.90;;;12.20;99.90;;;;;;5086274;28;20044;-67
2022/06/28 03:22:56;;;;;;;31.65;26.25;;;12.20;99.90;;;;;;5087159;28;20918;-67
2022/06/28 03:25:22;;;;;;;33.70;27.85;;;12.20;99.90;;;;;;5086572;28;20386;-67
2022/06/28 03:27:48;;;;;;;32.80;27.67;;;12.20;99.90;;;;;;5087052;28;20093;-67
2022/06/28 03:30:14;;;;;;;30.83;25.95;;;12.20;99.90;;;;;;5088226;28;20044;-67
2022/06/28 03:32:40;;;;;;;42.42;28.17;;;12.20;99.90;;;;;;5090825;28;20101;-67
2022/06/28 03:35:07;;;;;;;36.65;29.98;;;12.20;99.90;;;;;;5090400;28;20112;-67
2022/06/28 03:37:33;;;;;;;38.22;28.83;;;12.20;99.90;;;;;;5091324;28;20036;-68
2022/06/28 03:39:59;;;;;;;40.45;30.95;;;12.20;99.90;;;;;;5090887;28;20781;-67
2022/06/28 03:42:25;;;;;;;34.03;28.85;;;12.20;99.90;;;;;;5090824;28;20078;-67
2022/06/28 03:44:51;;;;;;;37.53;30.60;;;12.20;99.90;;;;;;5090022;28;20126;-67
2022/06/28 03:47:17;;;;;;;38.78;29.65;;;12.20;99.90;;;;;;5091296;28;20044;-67
2022/06/28 03:49:42;;;;;;;41.65;31.83;;;12.30;99.90;;;;;;5066020;28;20529;-67
2022/06/28 03:52:08;;;;;;;40.47;31.20;;;12.30;99.90;;;;;;5081470;28;20093;-67
2022/06/28 03:54:34;;;;;;;38.70;30.27;;;12.30;99.90;;;;;;5089928;28;20083;-67
2022/06/28 03:57:01;;;;;;;41.63;32.83;;;12.30;99.90;;;;;;5086045;28;20059;-67
2022/06/28 03:59:27;;;;;;;40.03;32.05;;;12.40;99.90;;;;;;5088966;28;20048;-67
2022/06/28 04:01:52;;;;;;;45.25;32.45;;;12.40;99.90;;;;;;5085557;28;20405;-67
2022/06/28 04:04:18;;;;;;;48.75;33.80;;;12.40;99.90;;;;;;5090557;28;20055;-67
2022/06/28 04:06:44;;;;;;;38.58;28.00;;;12.50;99.90;;;;;;5089857;28;20052;-67
2022/06/28 04:09:10;;;;;;;43.67;32.08;;;12.50;99.90;;;;;;5090102;28;20071;-67
2022/06/28 04:11:36;;;;;;;46.30;33.55;;;12.60;99.90;;;;;;5090329;28;20047;-67
2022/06/28 04:14:02;;;;;;;44.05;32.33;;;12.70;99.90;;;;;;5079560;28;20040;-67
2022/06/28 04:16:27;;;;;;;41.42;31.33;;;12.70;99.90;;;;;;5090079;28;20040;-67
2022/06/28 04:18:54;;;;;;;45.47;33.35;;;12.70;99.90;;;;;;5089101;28;20040;-67
2022/06/28 04:21:20;;;;;;;49.55;34.63;;;12.80;99.90;;;;;;5089883;28;20097;-67
2022/06/28 04:23:46;;;;;;;47.45;33.65;;;12.90;99.90;;;;;;5088794;28;20043;-67
2022/06/28 04:26:12;;;;;;;45.85;33.95;;;12.90;99.90;;;;;;5074571;28;20493;-67
2022/06/28 04:28:38;;;;;;;53.00;35.30;;;12.90;99.90;;;;;;5089024;28;20047;-67
2022/06/28 04:31:04;;;;;;;51.33;34.55;;;13.00;99.90;;;;;;5054474;28;20043;-67
2022/06/28 04:33:31;;;;;;;43.83;33.20;;;13.00;99.90;;;;;;5089997;28;20052;-67
2022/06/28 04:35:57;;;;;;;40.83;32.03;;;13.10;99.90;;;;;;5083704;28;20082;-68
2022/06/28 04:38:23;;;;;;;45.25;33.15;;;13.10;99.90;;;;;;5090325;28;20040;-67
2022/06/28 04:40:49;;;;;;;42.25;30.52;;;13.10;99.90;;;;;;5090087;28;20581;-68
2022/06/28 04:43:14;;;;;;;44.58;31.15;;;13.10;99.90;;;;;;5063729;28;20055;-68
2022/06/28 04:45:40;;;;;;;42.42;31.48;;;13.20;99.90;;;;;;5089467;28;20409;-67
2022/06/28 04:48:06;;;;;;;40.33;32.75;;;13.20;99.90;;;;;;5083797;28;20052;-68
2022/06/28 04:50:32;;;;;;;43.78;33.00;;;13.20;99.90;;;;;;5088605;28;20055;-67
2022/06/28 04:52:58;;;;;;;41.40;32.30;;;13.20;99.90;;;;;;5089326;28;20040;-67
2022/06/28 04:55:24;;;;;;;39.83;32.58;;;13.20;99.90;;;;;;5089634;28;20040;-67
2022/06/28 04:57:50;;;;;;;45.33;31.60;;;13.30;99.90;;;;;;5088191;28;20047;-67
2022/06/28 05:00:16;;;;;;;43.80;31.60;;;13.30;99.90;;;;;;5089223;28;20036;-67
2022/06/28 05:02:42;;;;;;;42.53;31.45;;;13.40;99.90;;;;;;5089285;28;20129;-67
2022/06/28 05:05:09;;;;;;;44.55;32.25;;;13.40;99.90;;;;;;5078174;28;20442;-67
2022/06/28 05:07:35;;;;;;;42.90;31.88;;;13.40;99.90;;;;;;5087037;28;20106;-67
2022/06/28 05:10:03;;;;;;;46.42;32.25;;;13.50;99.90;;;;;;5088757;28;20051;-67
2022/06/28 05:12:28;;;;;;;42.45;32.25;;;13.50;99.90;;;;;;5082673;28;20440;-67
2022/06/28 05:14:54;;;;;;;42.75;31.48;;;13.50;99.90;;;;;;5088779;28;20036;-67
2022/06/28 05:17:19;;;;;;;47.03;33.60;;;13.60;99.90;;;;;;5086242;28;20066;-67
2022/06/28 05:19:45;;;;;;;42.58;32.03;;;13.60;99.90;;;;;;5079563;28;20409;-68
2022/06/28 05:22:12;;;;;;;59.97;36.45;;;13.60;99.90;;;;;;5087985;28;20131;-67
2022/06/28 05:24:38;;;;;;;44.50;33.40;;;13.70;99.90;;;;;;5087976;28;20055;-67
2022/06/28 05:27:05;;;;;;;45.03;32.67;;;13.70;99.90;;;;;;5086457;28;20421;-67
2022/06/28 05:29:31;;;;;;;50.35;35.55;;;13.70;99.90;;;;;;5088326;28;20040;-67
2022/06/28 05:31:57;;;;;;;57.10;33.50;;;13.70;99.90;;;;;;5076783;28;20043;-67
2022/06/28 05:34:23;;;;;;;50.55;34.80;;;13.80;99.90;;;;;;5084824;28;20573;-67
2022/06/28 05:36:49;;;;;;;41.17;32.92;;;13.80;99.90;;;;;;5087311;28;20147;-67
2022/06/28 05:39:14;;;;;;;49.05;34.80;;;13.80;99.90;;;;;;5082115;28;20040;-67
2022/06/28 05:41:41;;;;;;;46.63;32.88;;;13.90;99.90;;;;;;5088103;28;20043;-67
2022/06/28 05:44:08;;;;;;;43.53;32.72;;;14.00;99.90;;;;;;5080844;28;20040;-66
2022/06/28 05:46:35;;;;;;;54.88;32.30;;;14.10;99.90;;;;;;5084731;28;20032;-67
2022/06/28 05:49:01;;;;;;;50.53;31.88;;;14.20;99.90;;;;;;5083569;28;20059;-68
2022/06/28 05:51:29;;;;;;;47.35;30.88;;;14.40;99.90;;;;;;5069625;28;20048;-67
2022/06/28 05:53:58;;;;;;;47.42;30.17;;;14.60;99.90;;;;;;5087573;28;20044;-67
2022/06/28 05:56:24;;;;;;;38.53;27.42;;;14.70;99.90;;;;;;5088062;28;20046;-67
2022/06/28 05:58:49;;;;;;;41.85;28.33;;;14.90;99.90;;;;;;5067395;28;20187;-67
2022/06/28 06:01:15;;;;;;;37.00;25.58;;;15.00;99.90;;;;;;5087670;28;20489;-67
2022/06/28 06:03:41;;;;;;;38.42;27.98;;;15.10;99.90;;;;;;5069783;28;20097;-67
2022/06/28 06:06:07;;;;;;;35.33;24.25;;;15.30;99.90;;;;;;5064250;28;20056;-67
2022/06/28 06:08:35;;;;;;;32.15;22.55;;;15.40;99.90;;;;;;5087739;28;20105;-67
2022/06/28 06:11:02;;;;;;;28.15;22.70;;;15.50;99.90;;;;;;5087504;28;20063;-67
2022/06/28 06:13:29;;;;;;;30.48;22.15;;;15.60;99.90;;;;;;5083122;28;20047;-67
2022/06/28 06:15:54;;;;;;;28.55;22.27;;;15.70;99.90;;;;;;5085767;28;20031;-67
2022/06/28 06:18:20;;;;;;;28.50;20.42;;;15.80;99.90;;;;;;5085822;28;20044;-67
2022/06/28 06:20:46;;;;;;;27.23;20.55;;;15.90;99.90;;;;;;5085966;28;20043;-67
2022/06/28 06:23:12;;;;;;;24.02;19.25;;;15.90;99.90;;;;;;5085561;28;20119;-68
2022/06/28 06:25:37;;;;;;;26.13;18.35;;;16.00;99.90;;;;;;5084800;28;20124;-68
2022/06/28 06:28:03;;;;;;;32.30;18.15;;;16.10;99.90;;;;;;5084957;28;20043;-67
2022/06/28 06:30:29;;;;;;;29.98;16.67;;;16.20;99.90;;;;;;5081387;28;20412;-67
2022/06/28 06:32:55;;;;;;;19.50;16.30;;;16.40;99.90;;;;;;5067822;28;20036;-67
2022/06/28 06:35:20;;;;;;;23.73;16.55;;;16.60;99.90;;;;;;5087054;28;20042;-67
2022/06/28 06:37:46;;;;;;;22.33;17.20;;;16.70;99.90;;;;;;5086410;28;20051;-67
2022/06/28 06:40:12;;;;;;;22.70;15.18;;;17.00;99.90;;;;;;5087381;28;20115;-67
2022/06/28 06:42:38;;;;;;;29.65;15.70;;;17.10;99.90;;;;;;5057358;28;20128;-67
2022/06/28 06:45:04;;;;;;;19.52;15.40;;;17.40;99.90;;;;;;5084049;28;20119;-67
2022/06/28 06:47:30;;;;;;;24.25;13.70;;;17.50;99.90;;;;;;5082267;28;20660;-67
2022/06/28 06:49:55;;;;;;;20.48;13.68;;;17.70;99.90;;;;;;5087263;28;20047;-66
2022/06/28 06:52:21;;;;;;;26.25;14.93;;;17.90;99.90;;;;;;5079440;28;20159;-68
2022/06/28 06:54:47;;;;;;;16.52;13.52;;;18.20;99.90;;;;;;5086548;28;20036;-68
2022/06/28 06:57:13;;;;;;;20.35;13.07;;;18.40;99.90;;;;;;5086708;28;20075;-66
2022/06/28 06:59:39;;;;;;;16.88;12.10;;;18.50;99.90;;;;;;5075513;28;20059;-65
2022/06/28 07:02:05;;;;;;;17.95;13.15;;;18.70;99.90;;;;;;5085758;28;20044;-66
2022/06/28 07:04:30;;;;;;;21.23;12.80;;;18.80;99.90;;;;;;5086801;28;20104;-65
2022/06/28 07:06:56;;;;;;;14.38;11.70;;;19.00;99.90;;;;;;5087805;28;20309;-66
2022/06/28 07:09:23;;;;;;;14.60;11.18;;;19.30;99.90;;;;;;5090763;28;20059;-65
2022/06/28 07:11:49;;;;;;;13.85;11.43;;;19.50;99.90;;;;;;5090481;28;20052;-65
2022/06/28 07:14:14;;;;;;;19.75;10.05;;;19.60;99.90;;;;;;5088620;28;20040;-65
2022/06/28 07:16:40;;;;;;;18.40;10.90;;;19.80;99.90;;;;;;5089698;28;20044;-65
2022/06/28 07:19:06;;;;;;;21.75;10.80;;;20.10;99.90;;;;;;5086592;28;20043;-65
2022/06/28 07:21:31;;;;;;;18.95;9.73;;;20.20;99.90;;;;;;5086307;28;20761;-65
2022/06/28 07:23:57;;;;;;;21.05;11.02;;;20.40;99.90;;;;;;5089074;28;20388;-65
2022/06/28 07:26:23;;;;;;;17.73;11.38;;;20.60;99.90;;;;;;5082882;28;20660;-65
2022/06/28 07:28:49;;;;;;;25.73;14.27;;;20.80;99.90;;;;;;5090077;28;20044;-65
2022/06/28 07:31:15;;;;;;;11.75;10.60;;;20.60;99.90;;;;;;5090325;28;20498;-65
2022/06/28 07:33:42;;;;;;;18.38;11.57;;;20.60;99.90;;;;;;5089023;28;20593;-65
2022/06/28 07:36:08;;;;;;;26.30;11.10;;;20.50;99.90;;;;;;5090422;28;20055;-65
2022/06/28 07:38:33;;;;;;;31.98;12.57;;;20.50;99.90;;;;;;5090108;28;20117;-65
2022/06/28 07:40:59;;;;;;;24.52;10.77;;;20.60;99.90;;;;;;5090313;28;20074;-65
2022/06/28 07:43:26;;;;;;;21.15;11.20;;;20.40;99.90;;;;;;5093780;28;20042;-65
2022/06/28 07:45:52;;;;;;;19.00;11.20;;;20.50;99.90;;;;;;5087408;28;20465;-64
2022/06/28 07:48:19;;;;;;;20.30;10.80;;;20.70;99.90;;;;;;5052341;28;20036;-66
2022/06/28 07:53:31;;;;;;;17.92;11.35;;;21.00;99.90;;;;;;5088827;28;20386;-66
2022/06/28 07:55:58;;;;;;;18.20;9.95;;;21.00;99.90;;;;;;5072362;28;20048;-64
2022/06/28 07:58:23;;;;;;;12.07;8.73;;;21.20;99.90;;;;;;5089757;28;20513;-67
2022/06/28 08:00:49;;;;;;;19.30;9.00;;;21.40;99.90;;;;;;5088873;28;20071;-69
2022/06/28 08:03:15;;;;;;;12.23;9.55;;;21.70;99.90;;;;;;5090577;28;20075;-66
2022/06/28 08:05:40;;;;;;;17.77;8.20;;;22.10;99.90;;;;;;5089400;28;20028;-66
2022/06/28 08:08:06;;;;;;;20.20;7.93;;;22.30;99.90;;;;;;5083732;28;20087;-66
2022/06/28 08:10:32;;;;;;;11.85;6.45;;;22.50;99.90;;;;;;5090138;28;20551;-66
2022/06/28 08:12:58;;;;;;;19.75;7.60;;;22.50;99.90;;;;;;5089271;28;20036;-65
2022/06/28 08:15:23;;;;;;;17.65;5.75;;;22.70;99.90;;;;;;5090454;28;20172;-71
2022/06/28 08:17:49;;;;;;;12.50;7.43;;;22.80;99.90;;;;;;5087934;28;20123;-66
2022/06/28 08:20:14;;;;;;;7.25;5.70;;;22.60;99.90;;;;;;5086271;28;20098;-66
2022/06/28 08:22:40;;;;;;;17.52;6.82;;;22.60;99.90;;;;;;5088178;28;20079;-66
2022/06/28 08:25:07;;;;;;;12.23;5.07;;;22.60;99.90;;;;;;5088036;28;20040;-66
2022/06/28 08:27:32;;;;;;;11.00;5.93;;;22.70;99.90;;;;;;5089691;28;20035;-67
2022/06/28 08:29:58;;;;;;;14.25;6.80;;;22.80;99.90;;;;;;5089786;28;20048;-67
2022/06/28 08:32:24;;;;;;;10.80;5.93;;;22.80;99.90;;;;;;5088221;28;20732;-67
2022/06/28 08:34:50;;;;;;;20.73;6.97;;;22.70;99.90;;;;;;5085018;28;20063;-66
2022/06/28 08:37:16;;;;;;;14.73;6.57;;;22.90;99.90;;;;;;5089169;28;20044;-66
2022/06/28 08:39:42;;;;;;;36.10;7.70;;;23.10;99.90;;;;;;5086406;28;20041;-66
2022/06/28 08:42:11;;;;;;;21.73;5.65;;;23.30;99.90;;;;;;5086968;28;20036;-66
2022/06/28 08:44:37;;;;;;;16.23;4.60;;;23.50;99.90;;;;;;5085673;28;20374;-66
2022/06/28 08:47:04;;;;;;;10.70;4.05;;;23.40;99.90;;;;;;5078551;28;20050;-66
2022/06/28 08:49:53;;;;;;;6.57;4.53;;;23.40;99.90;;;;;;5085170;28;20673;-67
2022/06/28 08:52:22;;;;;;;20.40;6.00;;;23.50;99.90;;;;;;5083600;28;20139;-68
2022/06/28 08:54:49;;;;;;;9.00;3.30;;;23.40;99.90;;;;;;5067714;28;20041;-68
2022/06/28 08:57:16;;;;;;;10.93;5.28;;;23.60;99.90;;;;;;5086971;28;20047;-67
2022/06/28 08:59:42;;;;;;;7.00;3.75;;;23.60;99.90;;;;;;5088906;28;20405;-67
2022/06/28 09:02:08;;;;;;;7.38;4.43;;;23.50;99.90;;;;;;5070499;28;20039;-66
2022/06/28 09:04:34;;;;;;;6.00;3.28;;;23.70;99.90;;;;;;5087117;28;20063;-71
2022/06/28 09:07:01;;;;;;;13.88;4.63;;;23.80;99.90;;;;;;5070392;28;20227;-67
2022/06/28 09:09:27;;;;;;;8.93;3.60;;;23.90;99.90;;;;;;5088765;28;20062;-66
2022/06/28 09:11:53;;;;;;;8.70;3.83;;;23.90;99.90;;;;;;5088731;28;20048;-66
2022/06/28 09:14:23;;;;;;;10.40;3.78;;;24.10;99.90;;;;;;5087863;28;20252;-66
2022/06/28 09:16:49;;;;;;;9.55;3.63;;;24.10;99.90;;;;;;5088846;28;20816;-67
2022/06/28 09:19:15;;;;;;;16.58;4.40;;;23.90;99.90;;;;;;5068421;28;20442;-67
2022/06/28 09:21:42;;;;;;;7.50;2.97;;;23.90;98.80;;;;;;5078538;28;20048;-66
2022/06/28 09:24:08;;;;;;;6.38;3.60;;;23.90;98.40;;;;;;5086559;28;20036;-66
2022/06/28 09:26:34;;;;;;;10.15;4.63;;;23.80;96.30;;;;;;5082847;28;20044;-66
2022/06/28 09:29:00;;;;;;;8.93;4.03;;;23.70;95.40;;;;;;5085258;28;20092;-66
2022/06/28 09:31:30;;;;;;;20.67;4.35;;;23.60;94.30;;;;;;5082502;28;20501;-69
2022/06/28 09:34:08;;;;;;;8.15;3.45;;;23.70;94.50;;;;;;5086632;28;20119;-67
2022/06/28 09:36:37;;;;;;;10.93;3.78;;;23.90;95.70;;;;;;5080159;28;20036;-67
2022/06/28 09:39:21;;;;;;;9.73;3.00;;;23.80;93.50;;;;;;5082916;28;20048;-67
2022/06/28 09:41:50;;;;;;;9.45;3.90;;;24.00;97.60;;;;;;5080607;28;20085;-67
2022/06/28 09:44:17;;;;;;;4.93;3.20;;;23.90;95.00;;;;;;5079684;28;20041;-69
2022/06/28 09:46:44;;;;;;;11.18;3.63;;;23.80;92.20;;;;;;5077621;28;20097;-67
2022/06/28 09:49:10;;;;;;;28.40;4.35;;;23.50;94.50;;;;;;5086902;28;20039;-67
2022/06/28 09:51:38;;;;;;;12.00;3.92;;;23.50;96.90;;;;;;5065944;28;20036;-69
2022/06/28 09:54:06;;;;;;;4.88;3.50;;;23.60;96.90;;;;;;5068177;28;20393;-68
2022/06/28 09:56:46;;;;;;;6.10;3.15;;;23.70;94.00;;;;;;5087988;28;20040;-68
2022/06/28 09:59:12;;;;;;;9.25;4.75;;;23.80;93.10;;;;;;5070480;28;20624;-68
2022/06/28 10:01:38;;;;;;;5.63;2.90;;;24.00;95.10;;;;;;5081546;28;20035;-68
2022/06/28 10:04:04;;;;;;;9.90;3.38;;;24.30;93.80;;;;;;5087703;28;20850;-68
2022/06/28 10:06:30;;;;;;;8.25;3.17;;;24.40;90.40;;;;;;5087421;28;20055;-67
2022/06/28 10:08:57;;;;;;;10.10;2.95;;;24.40;91.00;;;;;;5082285;28;20044;-68
2022/06/28 10:11:23;;;;;;;9.75;3.38;;;24.40;82.50;;;;;;5088050;28;20040;-67
2022/06/28 10:16:54;;;;;;;37.72;5.05;;;24.40;81.90;;;;;;5086533;28;20050;-69
2022/06/28 10:19:21;;;;;;;12.15;3.28;;;24.40;75.30;;;;;;5088107;28;20118;-66
2022/06/28 10:22:10;;;;;;;6.53;3.58;;;24.40;82.90;;;;;;5087530;28;20115;-67
2022/06/28 10:25:12;;;;;;;24.63;5.40;;;24.30;71.60;;;;;;5061667;28;20085;-67
2022/06/28 10:27:44;;;;;;;39.55;5.57;;;24.50;70.70;;;;;;5071153;28;20052;-68
2022/06/28 10:30:26;;;;;;;30.65;3.92;;;24.50;79.00;;;;;;5046536;28;20049;-68
2022/06/28 10:33:05;;;;;;;9.25;3.45;;;24.70;72.50;;;;;;5087616;28;20040;-69
2022/06/28 10:35:31;;;;;;;6.93;3.08;;;24.70;71.80;;;;;;5083664;28;20055;-67
2022/06/28 10:38:09;;;;;;;8.18;3.08;;;25.00;79.60;;;;;;5078231;28;20032;-67
2022/06/28 10:40:41;;;;;;;7.22;3.00;;;25.00;70.00;;;;;;5084917;28;20390;-66
2022/06/28 10:43:08;;;;;;;6.93;3.17;;;24.80;68.00;;;;;;5085199;28;20695;-66
2022/06/28 10:46:07;;;;;;;5.93;3.03;;;24.80;69.80;;;;;;5086053;28;20062;-66
2022/06/28 10:48:48;;;;;;;16.13;3.53;;;24.80;64.70;;;;;;5078600;28;20040;-67
2022/06/28 10:51:14;;;;;;;10.77;3.50;;;24.80;67.20;;;;;;5058568;28;20072;-67
2022/06/28 10:53:57;;;;;;;8.23;3.55;;;24.70;67.20;;;;;;5066073;28;20127;-66
2022/06/28 10:56:24;;;;;;;7.22;2.75;;;24.90;64.80;;;;;;5082571;28;20056;-66
2022/06/28 10:59:05;;;;;;;9.63;3.20;;;24.90;65.50;;;;;;5087342;28;20123;-66
2022/06/28 11:01:39;;;;;;;14.02;3.70;;;25.00;64.80;;;;;;5081600;28;20571;-66
2022/06/28 11:04:11;;;;;;;13.23;3.90;;;24.90;65.20;;;;;;5087309;28;20093;-66
2022/06/28 11:06:57;;;;;;;11.15;3.78;;;25.00;65.60;;;;;;5084188;28;20456;-66
2022/06/28 11:09:58;;;;;;;8.30;3.50;;;24.80;64.00;;;;;;5082831;28;20439;-66
2022/06/28 11:12:30;;;;;;;8.77;3.13;;;25.20;70.60;;;;;;5084915;28;20138;-66
2022/06/28 11:14:57;;;;;;;5.28;2.08;;;25.30;68.10;;;;;;5087252;28;20068;-66
2022/06/28 11:17:30;;;;;;;8.27;3.50;;;25.20;68.10;;;;;;5086498;28;20078;-68
2022/06/28 11:20:20;;;;;;;10.43;3.35;;;25.40;67.10;;;;;;5086201;28;20047;-68
2022/06/28 11:22:47;;;;;;;8.63;4.53;;;25.30;64.70;;;;;;5082873;28;20051;-68
2022/06/28 11:25:18;;;;;;;10.30;2.95;;;25.30;64.10;;;;;;5080820;28;20048;-67
2022/06/28 11:27:44;;;;;;;3.10;2.17;;;25.20;59.50;;;;;;5081089;28;20050;-68
2022/06/28 11:30:12;;;;;;;4.90;2.40;;;25.20;60.10;;;;;;5080696;28;20565;-68
2022/06/28 11:32:43;;;;;;;4.25;2.28;;;25.30;62.40;;;;;;5083449;28;20525;-68
2022/06/28 11:35:12;;;;;;;11.45;2.78;;;25.40;60.40;;;;;;5084754;28;20312;-68
2022/06/28 11:37:51;;;;;;;7.40;2.45;;;25.50;58.60;;;;;;5079952;28;20166;-67
2022/06/28 11:40:20;;;;;;;5.03;2.88;;;25.50;57.10;;;;;;5065741;28;20562;-68
2022/06/28 11:42:47;;;;;;;7.78;2.63;;;25.30;56.40;;;;;;5085653;28;20115;-68
2022/06/28 11:45:15;;;;;;;3.55;2.20;;;25.40;58.30;;;;;;5076677;28;20133;-67
2022/06/28 11:47:42;;;;;;;5.55;2.22;;;25.20;58.00;;;;;;5080929;28;20044;-68
2022/06/28 11:50:18;;;;;;;8.07;2.78;;;25.30;59.00;;;;;;5086821;28;20451;-68
2022/06/28 11:52:53;;;;;;;5.32;2.92;;;25.20;56.00;;;;;;5086070;28;20107;-68
2022/06/28 11:55:36;;;;;;;9.35;3.22;;;25.20;58.00;;;;;;5084728;28;20508;-68
2022/06/28 11:58:18;;;;;;;6.70;2.30;;;25.20;58.60;;;;;;5086536;28;20125;-68
2022/06/28 12:01:21;;;;;;;4.95;2.28;;;25.20;57.50;;;;;;5081587;28;20036;-68
2022/06/28 12:03:46;;;;;;;7.10;2.97;;;25.30;58.60;;;;;;5026464;28;20041;-68
2022/06/28 12:06:19;;;;;;;2.85;2.28;;;25.40;59.80;;;;;;5055322;28;20804;-67
2022/06/28 12:08:50;;;;;;;8.18;3.13;;;25.50;61.40;;;;;;5084261;28;20040;-67
2022/06/28 12:11:40;;;;;;;8.27;2.45;;;25.40;59.30;;;;;;5071606;28;20083;-67
2022/06/28 12:14:08;;;;;;;6.13;3.00;;;25.30;58.30;;;;;;5086305;28;20040;-67
2022/06/28 12:16:43;;;;;;;10.13;3.20;;;25.00;58.80;;;;;;5079788;28;20032;-69
2022/06/28 12:19:14;;;;;;;8.35;3.47;;;25.10;61.50;;;;;;5083790;28;20120;-69
2022/06/28 12:22:08;;;;;;;7.00;2.38;;;25.30;59.30;;;;;;5062204;28;20053;-68
2022/06/28 12:24:56;;;;;;;10.18;3.20;;;25.30;59.50;;;;;;5082015;28;20041;-69
2022/06/28 12:27:24;;;;;;;4.43;2.35;;;25.30;56.50;;;;;;5090230;28;20040;-69
2022/06/28 12:29:50;;;;;;;6.65;3.13;;;25.40;58.40;;;;;;5066476;28;20076;-69
2022/06/28 12:32:17;;;;;;;10.20;3.28;;;25.40;57.40;;;;;;5071257;28;20180;-69
2022/06/28 12:34:42;;;;;;;12.95;3.22;;;25.50;57.80;;;;;;5089910;28;20036;-70
2022/06/28 12:37:09;;;;;;;7.35;3.60;;;25.60;59.20;;;;;;5089464;28;20062;-69
2022/06/28 12:39:35;;;;;;;5.63;3.10;;;25.80;57.40;;;;;;5087359;28;20087;-70
2022/06/28 12:42:02;;;;;;;18.90;3.58;;;25.70;56.00;;;;;;5087473;28;20794;-71
2022/06/28 12:44:27;;;;;;;11.27;3.67;;;25.50;57.50;;;;;;5087714;28;20496;-69
2022/06/28 12:46:53;;;;;;;7.15;3.30;;;25.50;58.00;;;;;;5088687;28;20101;-69
2022/06/28 12:49:20;;;;;;;5.93;2.90;;;25.50;57.80;;;;;;5088184;28;20040;-68
2022/06/28 12:51:45;;;;;;;10.87;3.37;;;25.30;57.90;;;;;;5068987;28;20055;-69